Time;durP1;ratioP1;P1;durP2;ratioP2;P2;SDS_P1;SDS_P2;PMS_P1;PMS_P2;Temp;Humidity;BMP_temperature;BMP_pressure;BME280_temperature;BME280_humidity;BME280_pressure;Samples;Min_cycle;Max_cycle;Signal;HPM_P1;HPM_P2
2021/09/14 04:45:11;;;;;;;28.40;23.63;;;17.50;99.90;;;;;;5520074;23;20100;-83
2021/09/14 17:31:27;;;;;;;28.20;17.20;;;17.50;94.70;;;;;;5112392;27;20439;-82
2021/09/14 17:33:53;;;;;;;20.33;13.05;;;17.10;95.60;;;;;;5110365;28;20378;-82
2021/09/14 17:36:19;;;;;;;15.48;11.70;;;17.00;96.40;;;;;;5111514;28;20095;-84
2021/09/14 17:38:45;;;;;;;26.17;18.48;;;17.00;97.20;;;;;;5111655;28;20038;-85
2021/09/14 17:41:10;;;;;;;154.15;96.57;;;17.00;97.80;;;;;;5111559;28;20027;-84
2021/09/14 17:43:36;;;;;;;92.50;64.35;;;17.00;98.30;;;;;;5111653;28;20042;-87
2021/09/14 17:46:02;;;;;;;47.78;35.55;;;17.00;98.70;;;;;;5110478;28;20046;-91
2021/09/14 17:48:27;;;;;;;23.77;17.85;;;17.10;98.90;;;;;;5110478;28;20435;-85
2021/09/14 17:50:53;;;;;;;42.20;25.10;;;17.10;98.90;;;;;;5109715;28;20028;-87
2021/09/14 17:53:19;;;;;;;25.65;18.33;;;17.20;99.00;;;;;;5110560;28;20039;-87
2021/09/14 17:55:45;;;;;;;31.55;20.27;;;17.30;99.20;;;;;;5110644;28;20020;-91
2021/09/14 17:58:11;;;;;;;18.27;12.73;;;17.30;99.10;;;;;;5110416;28;20035;-85
2021/09/14 18:00:36;;;;;;;21.35;14.43;;;17.30;99.20;;;;;;5110212;28;20105;-85
2021/09/14 18:03:02;;;;;;;21.83;14.70;;;17.30;99.20;;;;;;5111104;28;20530;-84
2021/09/14 18:05:29;;;;;;;47.95;34.40;;;17.30;99.20;;;;;;5111300;28;20026;-81
2021/09/14 18:07:54;;;;;;;31.23;21.30;;;17.30;99.20;;;;;;5110941;28;20024;-80
2021/09/14 18:10:20;;;;;;;22.75;15.48;;;17.30;99.20;;;;;;5109255;28;20077;-80
2021/09/14 18:12:49;;;;;;;18.30;12.60;;;17.30;99.20;;;;;;5111145;28;20031;-80
2021/09/14 18:15:15;;;;;;;37.40;23.02;;;17.40;99.30;;;;;;5109538;28;20027;-80
2021/09/14 18:17:41;;;;;;;53.67;37.03;;;17.40;99.20;;;;;;5110779;28;20024;-80
2021/09/14 18:20:09;;;;;;;42.45;22.83;;;17.50;99.30;;;;;;5110527;28;20095;-80
2021/09/14 18:22:36;;;;;;;29.63;20.27;;;17.40;99.30;;;;;;5109447;28;20119;-80
2021/09/14 18:25:06;;;;;;;39.00;15.27;;;17.40;99.40;;;;;;5110610;28;20461;-80
2021/09/14 18:27:33;;;;;;;21.88;13.57;;;17.30;99.40;;;;;;5109305;28;20032;-80
2021/09/14 18:29:59;;;;;;;18.50;11.75;;;17.30;99.50;;;;;;5110123;28;20055;-80
2021/09/14 18:32:25;;;;;;;18.75;12.13;;;17.20;99.70;;;;;;5110774;28;20027;-80
2021/09/14 18:34:51;;;;;;;19.92;11.35;;;17.10;99.90;;;;;;5109176;28;20019;-80
2021/09/14 18:37:17;;;;;;;17.63;10.88;;;17.10;99.90;;;;;;5108834;28;20043;-80
2021/09/14 18:39:44;;;;;;;17.20;10.57;;;17.00;99.90;;;;;;5110308;28;20027;-80
2021/09/14 18:42:10;;;;;;;16.42;11.10;;;17.00;99.90;;;;;;5100415;28;20354;-81
2021/09/14 18:44:36;;;;;;;17.25;10.30;;;17.00;99.90;;;;;;5095508;28;20381;-81
2021/09/14 18:47:03;;;;;;;17.27;10.60;;;16.90;99.90;;;;;;5096142;28;20101;-80
2021/09/14 18:49:28;;;;;;;16.73;9.95;;;17.00;99.90;;;;;;5093725;28;20029;-80
2021/09/14 18:51:54;;;;;;;13.50;9.80;;;17.00;99.90;;;;;;5083440;28;20467;-80
2021/09/14 18:54:20;;;;;;;17.23;10.43;;;17.00;99.90;;;;;;5095673;28;20034;-83
2021/09/14 18:56:46;;;;;;;17.98;11.77;;;17.00;99.90;;;;;;5094712;28;20103;-83
2021/09/14 18:59:13;;;;;;;23.08;14.63;;;16.90;99.90;;;;;;5094344;28;20027;-80
2021/09/14 19:01:39;;;;;;;17.17;11.63;;;16.90;99.90;;;;;;5094928;28;20036;-80
2021/09/14 19:04:05;;;;;;;38.60;24.48;;;17.00;99.90;;;;;;5094713;28;20084;-79
2021/09/14 19:06:31;;;;;;;20.50;12.38;;;17.10;99.90;;;;;;5096005;28;20028;-80
2021/09/14 19:08:57;;;;;;;15.50;10.25;;;17.10;99.90;;;;;;5096286;28;20024;-80
2021/09/14 19:11:23;;;;;;;16.10;10.90;;;17.20;99.90;;;;;;5095830;28;20035;-80
2021/09/14 19:13:49;;;;;;;63.17;50.60;;;17.20;99.90;;;;;;5094657;28;20081;-83
2021/09/14 19:16:15;;;;;;;32.95;22.08;;;17.20;99.90;;;;;;5096265;28;20424;-81
2021/09/14 19:18:41;;;;;;;22.33;15.52;;;17.20;99.90;;;;;;5094518;28;20024;-81
2021/09/14 19:21:08;;;;;;;22.30;13.15;;;17.20;99.90;;;;;;5094190;28;20470;-81
2021/09/14 19:23:34;;;;;;;20.15;14.02;;;17.20;99.90;;;;;;5094682;28;20024;-82
2021/09/14 19:26:00;;;;;;;35.25;24.42;;;17.20;99.90;;;;;;5094607;28;20054;-81
2021/09/14 19:28:26;;;;;;;23.98;15.70;;;17.20;99.90;;;;;;5094428;28;20051;-82
2021/09/14 19:30:52;;;;;;;21.95;13.52;;;17.10;99.90;;;;;;5095267;28;20497;-81
2021/09/14 19:33:18;;;;;;;19.45;13.32;;;17.20;99.90;;;;;;5094109;28;20035;-82
2021/09/14 19:35:45;;;;;;;21.67;12.20;;;17.20;99.90;;;;;;5094432;28;20466;-81
2021/09/14 19:38:11;;;;;;;17.33;11.35;;;17.30;99.90;;;;;;5095592;28;20024;-81
2021/09/14 19:40:37;;;;;;;20.23;11.50;;;17.30;99.90;;;;;;5094423;28;20529;-81
2021/09/14 19:43:03;;;;;;;18.73;11.32;;;17.30;99.90;;;;;;5093442;28;20035;-82
2021/09/14 19:45:29;;;;;;;17.40;11.40;;;17.30;99.90;;;;;;5094810;28;20044;-82
2021/09/14 19:47:55;;;;;;;18.83;10.70;;;17.40;99.90;;;;;;5093542;28;20077;-81
